sensor_id;sensor_type;location;lat;lon;timestamp;temperature;humidity
12015;DHT22;6066;48.138;16.402;2022-07-29T00:02:24;20.90;99.90
12015;DHT22;6066;48.138;16.402;2022-07-29T00:04:51;20.90;99.90
12015;DHT22;6066;48.138;16.402;2022-07-29T00:07:18;20.90;99.90
12015;DHT22;6066;48.138;16.402;2022-07-29T00:09:46;20.90;99.90
12015;DHT22;6066;48.138;16.402;2022-07-29T00:12:13;20.90;99.90
12015;DHT22;6066;48.138;16.402;2022-07-29T00:14:39;20.90;99.90
12015;DHT22;6066;48.138;16.402;2022-07-29T00:17:06;20.90;99.90
12015;DHT22;6066;48.138;16.402;2022-07-29T00:19:33;20.90;99.90
12015;DHT22;6066;48.138;16.402;2022-07-29T00:22:00;20.90;99.90
12015;DHT22;6066;48.138;16.402;2022-07-29T00:24:27;20.90;99.90
12015;DHT22;6066;48.138;16.402;2022-07-29T00:26:55;20.90;99.90
12015;DHT22;6066;48.138;16.402;2022-07-29T00:29:21;20.90;99.90
12015;DHT22;6066;48.138;16.402;2022-07-29T00:31:48;20.90;99.90
12015;DHT22;6066;48.138;16.402;2022-07-29T00:34:15;20.90;99.90
12015;DHT22;6066;48.138;16.402;2022-07-29T00:36:55;20.90;99.90
12015;DHT22;6066;48.138;16.402;2022-07-29T00:39:22;20.80;99.90
12015;DHT22;6066;48.138;16.402;2022-07-29T00:41:49;20.70;99.90
12015;DHT22;6066;48.138;16.402;2022-07-29T00:44:17;20.70;99.90
12015;DHT22;6066;48.138;16.402;2022-07-29T00:46:44;20.60;99.90
12015;DHT22;6066;48.138;16.402;2022-07-29T00:49:11;20.50;99.90
12015;DHT22;6066;48.138;16.402;2022-07-29T00:51:37;20.50;99.90
12015;DHT22;6066;48.138;16.402;2022-07-29T00:54:05;20.50;99.90
12015;DHT22;6066;48.138;16.402;2022-07-29T00:56:32;20.50;99.90
12015;DHT22;6066;48.138;16.402;2022-07-29T00:58:59;20.40;99.90
12015;DHT22;6066;48.138;16.402;2022-07-29T01:01:27;20.30;99.90
12015;DHT22;6066;48.138;16.402;2022-07-29T01:03:54;20.30;99.90
12015;DHT22;6066;48.138;16.402;2022-07-29T01:06:21;20.20;99.90
12015;DHT22;6066;48.138;16.402;2022-07-29T01:08:48;20.20;99.90
12015;DHT22;6066;48.138;16.402;2022-07-29T01:11:15;20.10;99.90
12015;DHT22;6066;48.138;16.402;2022-07-29T01:13:42;20.10;99.90
12015;DHT22;6066;48.138;16.402;2022-07-29T01:16:10;20.10;99.90
12015;DHT22;6066;48.138;16.402;2022-07-29T01:18:42;20.00;99.90
12015;DHT22;6066;48.138;16.402;2022-07-29T01:21:16;20.00;99.90
12015;DHT22;6066;48.138;16.402;2022-07-29T01:23:52;19.90;99.90
12015;DHT22;6066;48.138;16.402;2022-07-29T01:26:34;19.80;99.90
12015;DHT22;6066;48.138;16.402;2022-07-29T01:29:07;19.70;99.90
12015;DHT22;6066;48.138;16.402;2022-07-29T01:31:40;19.70;99.90
12015;DHT22;6066;48.138;16.402;2022-07-29T01:34:08;19.60;99.90
12015;DHT22;6066;48.138;16.402;2022-07-29T01:36:44;19.60;99.90
12015;DHT22;6066;48.138;16.402;2022-07-29T01:39:13;19.50;99.90
12015;DHT22;6066;48.138;16.402;2022-07-29T01:41:44;19.50;99.90
12015;DHT22;6066;48.138;16.402;2022-07-29T01:44:16;19.50;99.90
12015;DHT22;6066;48.138;16.402;2022-07-29T01:46:47;19.40;99.90
12015;DHT22;6066;48.138;16.402;2022-07-29T01:49:16;19.40;99.90
12015;DHT22;6066;48.138;16.402;2022-07-29T01:51:45;19.30;99.90
12015;DHT22;6066;48.138;16.402;2022-07-29T01:54:14;19.30;99.90
12015;DHT22;6066;48.138;16.402;2022-07-29T01:56:42;19.30;99.90
12015;DHT22;6066;48.138;16.402;2022-07-29T01:59:10;19.20;99.90
12015;DHT22;6066;48.138;16.402;2022-07-29T02:01:39;19.20;99.90
12015;DHT22;6066;48.138;16.402;2022-07-29T02:04:06;19.20;99.90
12015;DHT22;6066;48.138;16.402;2022-07-29T02:06:35;19.20;99.90
12015;DHT22;6066;48.138;16.402;2022-07-29T02:09:03;19.20;99.90
12015;DHT22;6066;48.138;16.402;2022-07-29T02:11:31;19.10;99.90
12015;DHT22;6066;48.138;16.402;2022-07-29T02:13:58;19.00;99.90
12015;DHT22;6066;48.138;16.402;2022-07-29T02:16:26;19.00;99.90
12015;DHT22;6066;48.138;16.402;2022-07-29T02:18:56;19.00;99.90
12015;DHT22;6066;48.138;16.402;2022-07-29T02:21:24;18.90;99.90
12015;DHT22;6066;48.138;16.402;2022-07-29T02:23:51;18.90;99.90
12015;DHT22;6066;48.138;16.402;2022-07-29T02:26:19;18.80;99.90
12015;DHT22;6066;48.138;16.402;2022-07-29T02:28:47;18.80;99.90
12015;DHT22;6066;48.138;16.402;2022-07-29T02:31:14;18.80;99.90
12015;DHT22;6066;48.138;16.402;2022-07-29T02:33:44;18.80;99.90
12015;DHT22;6066;48.138;16.402;2022-07-29T02:36:13;18.80;99.90
12015;DHT22;6066;48.138;16.402;2022-07-29T02:38:40;18.80;99.90
12015;DHT22;6066;48.138;16.402;2022-07-29T02:41:19;18.80;99.90
12015;DHT22;6066;48.138;16.402;2022-07-29T02:43:47;18.80;99.90
12015;DHT22;6066;48.138;16.402;2022-07-29T02:46:14;18.80;99.90
12015;DHT22;6066;48.138;16.402;2022-07-29T02:51:28;18.80;99.90
12015;DHT22;6066;48.138;16.402;2022-07-29T02:53:55;18.80;99.90
12015;DHT22;6066;48.138;16.402;2022-07-29T02:56:23;18.80;99.90
12015;DHT22;6066;48.138;16.402;2022-07-29T02:58:52;18.70;99.90
12015;DHT22;6066;48.138;16.402;2022-07-29T03:01:21;18.80;99.90
12015;DHT22;6066;48.138;16.402;2022-07-29T03:03:48;18.70;99.90
12015;DHT22;6066;48.138;16.402;2022-07-29T03:06:16;18.70;99.90
12015;DHT22;6066;48.138;16.402;2022-07-29T03:08:45;18.70;99.90
12015;DHT22;6066;48.138;16.402;2022-07-29T03:11:12;18.60;99.90
12015;DHT22;6066;48.138;16.402;2022-07-29T03:13:39;18.60;99.90
12015;DHT22;6066;48.138;16.402;2022-07-29T03:16:06;18.60;99.90
12015;DHT22;6066;48.138;16.402;2022-07-29T03:18:33;18.50;99.90
12015;DHT22;6066;48.138;16.402;2022-07-29T03:21:00;18.50;99.90
12015;DHT22;6066;48.138;16.402;2022-07-29T03:23:27;18.50;99.90
12015;DHT22;6066;48.138;16.402;2022-07-29T03:25:55;18.40;99.90
12015;DHT22;6066;48.138;16.402;2022-07-29T03:28:22;18.40;99.90
12015;DHT22;6066;48.138;16.402;2022-07-29T03:30:49;18.40;99.90
12015;DHT22;6066;48.138;16.402;2022-07-29T03:33:16;18.40;99.90
12015;DHT22;6066;48.138;16.402;2022-07-29T03:35:42;18.40;99.90
12015;DHT22;6066;48.138;16.402;2022-07-29T03:38:09;18.40;99.90
12015;DHT22;6066;48.138;16.402;2022-07-29T03:40:38;18.40;99.90
12015;DHT22;6066;48.138;16.402;2022-07-29T03:43:06;18.30;99.90
12015;DHT22;6066;48.138;16.402;2022-07-29T03:45:35;18.30;99.90
12015;DHT22;6066;48.138;16.402;2022-07-29T03:48:05;18.40;99.90
12015;DHT22;6066;48.138;16.402;2022-07-29T03:50:32;18.30;99.90
12015;DHT22;6066;48.138;16.402;2022-07-29T03:53:00;18.40;99.90
12015;DHT22;6066;48.138;16.402;2022-07-29T03:55:28;18.40;99.90
12015;DHT22;6066;48.138;16.402;2022-07-29T03:57:55;18.40;99.90
12015;DHT22;6066;48.138;16.402;2022-07-29T04:00:24;18.40;99.90
12015;DHT22;6066;48.138;16.402;2022-07-29T04:02:51;18.40;99.90
12015;DHT22;6066;48.138;16.402;2022-07-29T04:05:18;18.40;99.90
12015;DHT22;6066;48.138;16.402;2022-07-29T04:07:45;18.40;99.90
12015;DHT22;6066;48.138;16.402;2022-07-29T04:10:12;18.30;99.90
12015;DHT22;6066;48.138;16.402;2022-07-29T04:12:40;18.30;99.90
12015;DHT22;6066;48.138;16.402;2022-07-29T04:15:07;18.30;99.90
12015;DHT22;6066;48.138;16.402;2022-07-29T04:17:36;18.20;99.90
12015;DHT22;6066;48.138;16.402;2022-07-29T04:20:02;18.30;99.90
12015;DHT22;6066;48.138;16.402;2022-07-29T04:22:29;18.30;99.90
12015;DHT22;6066;48.138;16.402;2022-07-29T04:24:56;18.40;99.90
12015;DHT22;6066;48.138;16.402;2022-07-29T04:27:23;18.40;99.90
12015;DHT22;6066;48.138;16.402;2022-07-29T04:29:49;18.50;99.90
12015;DHT22;6066;48.138;16.402;2022-07-29T04:32:16;18.50;99.90
12015;DHT22;6066;48.138;16.402;2022-07-29T04:34:44;18.60;99.90
12015;DHT22;6066;48.138;16.402;2022-07-29T04:37:11;18.60;99.90
12015;DHT22;6066;48.138;16.402;2022-07-29T04:39:38;18.70;99.90
12015;DHT22;6066;48.138;16.402;2022-07-29T04:42:05;18.80;99.90
12015;DHT22;6066;48.138;16.402;2022-07-29T04:44:32;18.90;99.90
12015;DHT22;6066;48.138;16.402;2022-07-29T04:46:58;19.00;99.90
12015;DHT22;6066;48.138;16.402;2022-07-29T04:49:25;19.10;99.90
12015;DHT22;6066;48.138;16.402;2022-07-29T04:51:53;19.20;99.90
12015;DHT22;6066;48.138;16.402;2022-07-29T04:54:20;19.30;99.90
12015;DHT22;6066;48.138;16.402;2022-07-29T04:56:46;19.40;99.90
12015;DHT22;6066;48.138;16.402;2022-07-29T04:59:13;19.40;99.90
12015;DHT22;6066;48.138;16.402;2022-07-29T05:01:40;19.50;99.90
12015;DHT22;6066;48.138;16.402;2022-07-29T05:04:09;19.60;99.90
12015;DHT22;6066;48.138;16.402;2022-07-29T05:06:35;19.60;99.90
12015;DHT22;6066;48.138;16.402;2022-07-29T05:09:03;19.70;99.90
12015;DHT22;6066;48.138;16.402;2022-07-29T05:11:30;19.70;99.90
12015;DHT22;6066;48.138;16.402;2022-07-29T05:13:57;19.80;99.90
12015;DHT22;6066;48.138;16.402;2022-07-29T05:16:23;19.80;99.90
12015;DHT22;6066;48.138;16.402;2022-07-29T05:18:50;19.90;99.90
12015;DHT22;6066;48.138;16.402;2022-07-29T05:21:17;19.90;99.90
12015;DHT22;6066;48.138;16.402;2022-07-29T05:23:43;20.00;99.90
12015;DHT22;6066;48.138;16.402;2022-07-29T05:26:11;20.10;99.90
12015;DHT22;6066;48.138;16.402;2022-07-29T05:28:38;20.20;99.90
12015;DHT22;6066;48.138;16.402;2022-07-29T05:31:05;20.30;99.90
12015;DHT22;6066;48.138;16.402;2022-07-29T05:33:31;20.40;99.90
12015;DHT22;6066;48.138;16.402;2022-07-29T05:35:58;20.50;99.90
12015;DHT22;6066;48.138;16.402;2022-07-29T05:38:25;20.60;99.90
12015;DHT22;6066;48.138;16.402;2022-07-29T05:40:52;20.60;99.90
12015;DHT22;6066;48.138;16.402;2022-07-29T05:43:20;20.70;99.90
12015;DHT22;6066;48.138;16.402;2022-07-29T05:45:47;20.80;99.90
12015;DHT22;6066;48.138;16.402;2022-07-29T05:48:13;20.90;99.90
12015;DHT22;6066;48.138;16.402;2022-07-29T05:50:40;21.00;99.90
12015;DHT22;6066;48.138;16.402;2022-07-29T05:53:07;21.10;99.90
12015;DHT22;6066;48.138;16.402;2022-07-29T05:55:33;21.20;99.90
12015;DHT22;6066;48.138;16.402;2022-07-29T05:58:00;21.30;99.90
12015;DHT22;6066;48.138;16.402;2022-07-29T06:00:28;21.50;99.90
12015;DHT22;6066;48.138;16.402;2022-07-29T06:02:55;21.60;99.90
12015;DHT22;6066;48.138;16.402;2022-07-29T06:05:22;21.90;99.90
12015;DHT22;6066;48.138;16.402;2022-07-29T06:07:48;22.10;99.90
12015;DHT22;6066;48.138;16.402;2022-07-29T06:10:15;22.20;99.90
12015;DHT22;6066;48.138;16.402;2022-07-29T06:12:42;22.40;99.90
12015;DHT22;6066;48.138;16.402;2022-07-29T06:15:09;22.50;99.90
12015;DHT22;6066;48.138;16.402;2022-07-29T06:17:37;22.60;99.90
12015;DHT22;6066;48.138;16.402;2022-07-29T06:20:04;22.60;99.90
12015;DHT22;6066;48.138;16.402;2022-07-29T06:22:31;22.70;99.90
12015;DHT22;6066;48.138;16.402;2022-07-29T06:24:58;22.80;99.90
12015;DHT22;6066;48.138;16.402;2022-07-29T06:27:24;23.00;99.90
12015;DHT22;6066;48.138;16.402;2022-07-29T06:29:51;23.10;99.90
12015;DHT22;6066;48.138;16.402;2022-07-29T06:32:18;23.20;99.90
12015;DHT22;6066;48.138;16.402;2022-07-29T06:34:48;23.30;99.90
12015;DHT22;6066;48.138;16.402;2022-07-29T06:37:15;23.40;99.90
12015;DHT22;6066;48.138;16.402;2022-07-29T06:39:42;23.40;99.90
12015;DHT22;6066;48.138;16.402;2022-07-29T06:42:09;23.50;99.90
12015;DHT22;6066;48.138;16.402;2022-07-29T06:44:36;23.50;99.90
12015;DHT22;6066;48.138;16.402;2022-07-29T06:47:03;23.60;99.90
12015;DHT22;6066;48.138;16.402;2022-07-29T06:49:31;23.60;99.90
12015;DHT22;6066;48.138;16.402;2022-07-29T06:51:59;23.70;99.90
12015;DHT22;6066;48.138;16.402;2022-07-29T06:54:26;23.70;99.90
12015;DHT22;6066;48.138;16.402;2022-07-29T06:56:53;23.80;99.90
12015;DHT22;6066;48.138;16.402;2022-07-29T06:59:19;23.80;99.90
12015;DHT22;6066;48.138;16.402;2022-07-29T07:01:46;23.70;99.90
12015;DHT22;6066;48.138;16.402;2022-07-29T07:04:13;23.80;99.90
12015;DHT22;6066;48.138;16.402;2022-07-29T07:06:39;23.80;99.90
12015;DHT22;6066;48.138;16.402;2022-07-29T07:09:08;23.80;99.90
12015;DHT22;6066;48.138;16.402;2022-07-29T07:11:34;23.80;99.90
12015;DHT22;6066;48.138;16.402;2022-07-29T07:14:01;23.80;99.90
12015;DHT22;6066;48.138;16.402;2022-07-29T07:16:28;23.80;99.90
12015;DHT22;6066;48.138;16.402;2022-07-29T07:18:54;23.80;99.90
12015;DHT22;6066;48.138;16.402;2022-07-29T07:21:21;23.80;99.90
12015;DHT22;6066;48.138;16.402;2022-07-29T07:23:48;23.90;99.90
12015;DHT22;6066;48.138;16.402;2022-07-29T07:26:16;23.90;99.90
12015;DHT22;6066;48.138;16.402;2022-07-29T07:28:43;24.00;99.90
12015;DHT22;6066;48.138;16.402;2022-07-29T07:31:09;24.10;99.90
12015;DHT22;6066;48.138;16.402;2022-07-29T07:33:39;24.20;99.90
12015;DHT22;6066;48.138;16.402;2022-07-29T07:36:06;24.20;99.90
12015;DHT22;6066;48.138;16.402;2022-07-29T07:38:34;24.40;99.90
12015;DHT22;6066;48.138;16.402;2022-07-29T07:41:01;24.40;99.90
12015;DHT22;6066;48.138;16.402;2022-07-29T07:43:29;24.50;99.90
12015;DHT22;6066;48.138;16.402;2022-07-29T07:45:56;24.50;99.90
12015;DHT22;6066;48.138;16.402;2022-07-29T07:48:22;24.60;99.90
12015;DHT22;6066;48.138;16.402;2022-07-29T07:50:49;24.60;99.90
12015;DHT22;6066;48.138;16.402;2022-07-29T07:53:16;24.60;99.90
12015;DHT22;6066;48.138;16.402;2022-07-29T07:55:43;24.60;99.90
12015;DHT22;6066;48.138;16.402;2022-07-29T07:58:10;24.60;99.90
12015;DHT22;6066;48.138;16.402;2022-07-29T08:00:38;24.70;99.90
12015;DHT22;6066;48.138;16.402;2022-07-29T08:03:05;24.90;99.90
12015;DHT22;6066;48.138;16.402;2022-07-29T08:05:31;25.10;99.90
12015;DHT22;6066;48.138;16.402;2022-07-29T08:07:58;25.20;99.90
12015;DHT22;6066;48.138;16.402;2022-07-29T08:10:25;25.30;99.90
12015;DHT22;6066;48.138;16.402;2022-07-29T08:13:09;25.40;99.90
12015;DHT22;6066;48.138;16.402;2022-07-29T08:15:38;25.60;99.90
12015;DHT22;6066;48.138;16.402;2022-07-29T08:18:06;25.70;99.90
12015;DHT22;6066;48.138;16.402;2022-07-29T08:20:33;25.80;99.90
12015;DHT22;6066;48.138;16.402;2022-07-29T08:23:00;25.90;99.90
12015;DHT22;6066;48.138;16.402;2022-07-29T08:25:27;26.00;99.90
12015;DHT22;6066;48.138;16.402;2022-07-29T08:27:54;26.00;99.90
12015;DHT22;6066;48.138;16.402;2022-07-29T08:30:21;26.00;99.90
12015;DHT22;6066;48.138;16.402;2022-07-29T08:32:49;26.00;99.90
12015;DHT22;6066;48.138;16.402;2022-07-29T08:35:18;26.10;99.90
12015;DHT22;6066;48.138;16.402;2022-07-29T08:37:45;26.10;99.90
12015;DHT22;6066;48.138;16.402;2022-07-29T08:40:12;26.20;99.90
12015;DHT22;6066;48.138;16.402;2022-07-29T08:42:39;26.30;99.90
12015;DHT22;6066;48.138;16.402;2022-07-29T08:45:06;26.40;99.90
12015;DHT22;6066;48.138;16.402;2022-07-29T08:47:33;26.50;99.90
12015;DHT22;6066;48.138;16.402;2022-07-29T08:50:03;26.60;99.90
12015;DHT22;6066;48.138;16.402;2022-07-29T08:52:30;26.80;99.90
12015;DHT22;6066;48.138;16.402;2022-07-29T08:54:59;26.90;99.90
12015;DHT22;6066;48.138;16.402;2022-07-29T08:57:25;27.20;99.90
12015;DHT22;6066;48.138;16.402;2022-07-29T08:59:52;27.40;99.90
12015;DHT22;6066;48.138;16.402;2022-07-29T09:02:21;27.70;99.90
12015;DHT22;6066;48.138;16.402;2022-07-29T09:04:49;28.00;99.90
12015;DHT22;6066;48.138;16.402;2022-07-29T09:07:17;28.20;99.90
12015;DHT22;6066;48.138;16.402;2022-07-29T09:09:44;28.30;99.90
12015;DHT22;6066;48.138;16.402;2022-07-29T09:12:11;28.30;99.90
12015;DHT22;6066;48.138;16.402;2022-07-29T09:14:39;28.40;99.90
12015;DHT22;6066;48.138;16.402;2022-07-29T09:17:06;28.50;99.90
12015;DHT22;6066;48.138;16.402;2022-07-29T09:19:33;28.50;99.90
12015;DHT22;6066;48.138;16.402;2022-07-29T09:22:01;28.40;99.90
12015;DHT22;6066;48.138;16.402;2022-07-29T09:24:43;28.40;99.90
12015;DHT22;6066;48.138;16.402;2022-07-29T09:27:11;28.30;99.90
12015;DHT22;6066;48.138;16.402;2022-07-29T09:29:38;28.20;99.90
12015;DHT22;6066;48.138;16.402;2022-07-29T09:32:08;28.10;99.90
12015;DHT22;6066;48.138;16.402;2022-07-29T09:34:35;27.90;99.90
12015;DHT22;6066;48.138;16.402;2022-07-29T09:37:02;27.80;99.90
12015;DHT22;6066;48.138;16.402;2022-07-29T09:39:30;27.60;99.90
12015;DHT22;6066;48.138;16.402;2022-07-29T09:41:59;27.60;99.90
12015;DHT22;6066;48.138;16.402;2022-07-29T09:44:27;27.60;99.90
12015;DHT22;6066;48.138;16.402;2022-07-29T09:47:06;27.60;99.90
12015;DHT22;6066;48.138;16.402;2022-07-29T09:49:33;27.60;99.90
12015;DHT22;6066;48.138;16.402;2022-07-29T09:52:05;27.60;99.90
12015;DHT22;6066;48.138;16.402;2022-07-29T09:54:32;27.60;99.90
12015;DHT22;6066;48.138;16.402;2022-07-29T09:57:03;27.80;99.90
12015;DHT22;6066;48.138;16.402;2022-07-29T09:59:30;28.10;99.90
12015;DHT22;6066;48.138;16.402;2022-07-29T10:01:57;28.30;99.90
12015;DHT22;6066;48.138;16.402;2022-07-29T10:04:24;28.40;99.90
12015;DHT22;6066;48.138;16.402;2022-07-29T10:07:02;28.60;99.90
12015;DHT22;6066;48.138;16.402;2022-07-29T10:09:30;28.70;99.90
12015;DHT22;6066;48.138;16.402;2022-07-29T10:12:11;28.80;99.90
12015;DHT22;6066;48.138;16.402;2022-07-29T10:14:39;29.10;99.90
12015;DHT22;6066;48.138;16.402;2022-07-29T10:17:06;29.50;99.90
12015;DHT22;6066;48.138;16.402;2022-07-29T10:19:33;30.00;99.90
12015;DHT22;6066;48.138;16.402;2022-07-29T10:22:01;30.40;99.90
12015;DHT22;6066;48.138;16.402;2022-07-29T10:24:29;30.40;99.90
12015;DHT22;6066;48.138;16.402;2022-07-29T10:26:56;30.40;99.90
12015;DHT22;6066;48.138;16.402;2022-07-29T10:29:24;30.40;99.90
12015;DHT22;6066;48.138;16.402;2022-07-29T10:31:53;30.50;99.90
12015;DHT22;6066;48.138;16.402;2022-07-29T10:34:27;30.90;99.90
12015;DHT22;6066;48.138;16.402;2022-07-29T10:37:01;31.00;99.90
12015;DHT22;6066;48.138;16.402;2022-07-29T10:39:33;30.90;99.90
12015;DHT22;6066;48.138;16.402;2022-07-29T10:42:15;30.50;99.90
12015;DHT22;6066;48.138;16.402;2022-07-29T10:44:45;30.30;99.90
12015;DHT22;6066;48.138;16.402;2022-07-29T10:47:19;30.10;99.90
12015;DHT22;6066;48.138;16.402;2022-07-29T10:49:54;30.30;99.90
12015;DHT22;6066;48.138;16.402;2022-07-29T10:52:21;30.80;99.90
12015;DHT22;6066;48.138;16.402;2022-07-29T10:54:49;31.10;99.90
12015;DHT22;6066;48.138;16.402;2022-07-29T10:57:19;31.00;99.90
12015;DHT22;6066;48.138;16.402;2022-07-29T10:59:48;30.70;99.90
12015;DHT22;6066;48.138;16.402;2022-07-29T11:05:01;30.20;99.90
12015;DHT22;6066;48.138;16.402;2022-07-29T11:07:29;30.00;99.90
12015;DHT22;6066;48.138;16.402;2022-07-29T11:12:46;29.70;99.90
12015;DHT22;6066;48.138;16.402;2022-07-29T11:15:15;29.60;99.90
12015;DHT22;6066;48.138;16.402;2022-07-29T11:20:33;29.50;99.90
12015;DHT22;6066;48.138;16.402;2022-07-29T11:23:00;29.40;99.90
12015;DHT22;6066;48.138;16.402;2022-07-29T11:25:27;29.40;99.90
12015;DHT22;6066;48.138;16.402;2022-07-29T11:28:02;29.30;99.90
12015;DHT22;6066;48.138;16.402;2022-07-29T11:30:49;29.30;99.90
12015;DHT22;6066;48.138;16.402;2022-07-29T11:36:08;29.20;99.90
12015;DHT22;6066;48.138;16.402;2022-07-29T11:38:35;29.30;99.90
12015;DHT22;6066;48.138;16.402;2022-07-29T11:41:21;29.40;99.90
12015;DHT22;6066;48.138;16.402;2022-07-29T11:43:48;29.70;99.90
12015;DHT22;6066;48.138;16.402;2022-07-29T11:46:18;30.00;99.90
12015;DHT22;6066;48.138;16.402;2022-07-29T11:49:04;30.40;99.90
12015;DHT22;6066;48.138;16.402;2022-07-29T11:51:31;30.70;99.90
12015;DHT22;6066;48.138;16.402;2022-07-29T11:53:58;30.80;99.90
12015;DHT22;6066;48.138;16.402;2022-07-29T11:56:26;30.70;99.40
12015;DHT22;6066;48.138;16.402;2022-07-29T11:59:02;30.60;99.70
12015;DHT22;6066;48.138;16.402;2022-07-29T12:01:30;30.60;99.90
12015;DHT22;6066;48.138;16.402;2022-07-29T12:04:02;30.70;99.90
12015;DHT22;6066;48.138;16.402;2022-07-29T12:06:29;30.80;99.90
12015;DHT22;6066;48.138;16.402;2022-07-29T12:08:56;30.60;99.60
12015;DHT22;6066;48.138;16.402;2022-07-29T12:11:23;30.40;99.60
12015;DHT22;6066;48.138;16.402;2022-07-29T12:13:50;30.00;99.90
12015;DHT22;6066;48.138;16.402;2022-07-29T12:16:17;29.70;99.90
12015;DHT22;6066;48.138;16.402;2022-07-29T12:18:55;29.70;99.90
12015;DHT22;6066;48.138;16.402;2022-07-29T12:21:22;29.70;99.90
12015;DHT22;6066;48.138;16.402;2022-07-29T12:23:51;29.70;99.90
12015;DHT22;6066;48.138;16.402;2022-07-29T12:26:18;29.60;99.90
12015;DHT22;6066;48.138;16.402;2022-07-29T12:28:45;29.50;99.90
12015;DHT22;6066;48.138;16.402;2022-07-29T12:31:12;29.50;99.90
12015;DHT22;6066;48.138;16.402;2022-07-29T12:33:39;29.60;99.90
12015;DHT22;6066;48.138;16.402;2022-07-29T12:36:08;29.60;99.90
12015;DHT22;6066;48.138;16.402;2022-07-29T12:38:35;29.70;99.90
12015;DHT22;6066;48.138;16.402;2022-07-29T12:41:02;29.60;99.90
12015;DHT22;6066;48.138;16.402;2022-07-29T12:43:29;29.60;99.90
12015;DHT22;6066;48.138;16.402;2022-07-29T12:45:56;29.50;99.90
12015;DHT22;6066;48.138;16.402;2022-07-29T12:48:33;29.50;99.90
12015;DHT22;6066;48.138;16.402;2022-07-29T12:51:00;29.40;99.90
12015;DHT22;6066;48.138;16.402;2022-07-29T12:53:28;29.30;99.90
12015;DHT22;6066;48.138;16.402;2022-07-29T12:55:56;29.20;99.90
12015;DHT22;6066;48.138;16.402;2022-07-29T12:58:28;29.10;99.90
12015;DHT22;6066;48.138;16.402;2022-07-29T13:01:03;29.10;99.90
12015;DHT22;6066;48.138;16.402;2022-07-29T13:03:41;29.10;99.90
12015;DHT22;6066;48.138;16.402;2022-07-29T13:06:23;29.10;99.90
12015;DHT22;6066;48.138;16.402;2022-07-29T13:08:59;29.10;99.90
12015;DHT22;6066;48.138;16.402;2022-07-29T13:11:27;29.10;99.90
12015;DHT22;6066;48.138;16.402;2022-07-29T13:13:54;29.10;99.90
12015;DHT22;6066;48.138;16.402;2022-07-29T13:16:20;29.00;99.90
12015;DHT22;6066;48.138;16.402;2022-07-29T13:18:47;29.00;99.90
12015;DHT22;6066;48.138;16.402;2022-07-29T13:21:15;28.80;99.90
12015;DHT22;6066;48.138;16.402;2022-07-29T13:23:42;28.60;99.90
12015;DHT22;6066;48.138;16.402;2022-07-29T13:26:10;28.40;99.90
12015;DHT22;6066;48.138;16.402;2022-07-29T13:28:37;28.20;99.90
12015;DHT22;6066;48.138;16.402;2022-07-29T13:31:05;27.90;99.90
12015;DHT22;6066;48.138;16.402;2022-07-29T13:33:31;27.70;99.90
12015;DHT22;6066;48.138;16.402;2022-07-29T13:35:58;27.60;99.90
12015;DHT22;6066;48.138;16.402;2022-07-29T13:38:25;27.50;99.90
12015;DHT22;6066;48.138;16.402;2022-07-29T13:40:52;27.30;99.90
12015;DHT22;6066;48.138;16.402;2022-07-29T13:43:20;27.20;99.90
12015;DHT22;6066;48.138;16.402;2022-07-29T13:45:47;27.10;99.90
12015;DHT22;6066;48.138;16.402;2022-07-29T13:48:14;27.00;99.90
12015;DHT22;6066;48.138;16.402;2022-07-29T13:50:40;26.90;99.90
12015;DHT22;6066;48.138;16.402;2022-07-29T13:53:07;26.90;99.90
12015;DHT22;6066;48.138;16.402;2022-07-29T13:55:34;26.60;99.90
12015;DHT22;6066;48.138;16.402;2022-07-29T13:58:00;26.50;99.90
12015;DHT22;6066;48.138;16.402;2022-07-29T14:00:28;26.20;99.90
12015;DHT22;6066;48.138;16.402;2022-07-29T14:02:55;26.10;99.90
12015;DHT22;6066;48.138;16.402;2022-07-29T14:05:22;25.70;99.90
12015;DHT22;6066;48.138;16.402;2022-07-29T14:07:49;25.30;99.90
12015;DHT22;6066;48.138;16.402;2022-07-29T14:10:16;25.00;99.90
12015;DHT22;6066;48.138;16.402;2022-07-29T14:12:42;24.70;99.90
12015;DHT22;6066;48.138;16.402;2022-07-29T14:15:09;24.40;99.90
12015;DHT22;6066;48.138;16.402;2022-07-29T14:17:37;24.20;99.90
12015;DHT22;6066;48.138;16.402;2022-07-29T14:20:04;23.90;99.90
12015;DHT22;6066;48.138;16.402;2022-07-29T14:22:31;23.80;99.90
12015;DHT22;6066;48.138;16.402;2022-07-29T14:24:58;23.80;99.90
12015;DHT22;6066;48.138;16.402;2022-07-29T14:27:25;23.70;99.90
12015;DHT22;6066;48.138;16.402;2022-07-29T14:29:52;23.60;99.90
12015;DHT22;6066;48.138;16.402;2022-07-29T14:32:18;23.40;99.90
12015;DHT22;6066;48.138;16.402;2022-07-29T14:34:46;23.20;99.90
12015;DHT22;6066;48.138;16.402;2022-07-29T14:37:13;22.90;99.90
12015;DHT22;6066;48.138;16.402;2022-07-29T14:39:40;22.30;99.90
12015;DHT22;6066;48.138;16.402;2022-07-29T14:42:06;21.90;99.90
12015;DHT22;6066;48.138;16.402;2022-07-29T14:44:33;21.50;99.90
12015;DHT22;6066;48.138;16.402;2022-07-29T14:47:00;21.20;99.90
12015;DHT22;6066;48.138;16.402;2022-07-29T14:49:27;20.90;99.90
12015;DHT22;6066;48.138;16.402;2022-07-29T14:51:55;20.80;99.90
12015;DHT22;6066;48.138;16.402;2022-07-29T14:54:21;20.80;99.90
12015;DHT22;6066;48.138;16.402;2022-07-29T14:56:48;20.80;99.90
12015;DHT22;6066;48.138;16.402;2022-07-29T14:59:16;20.80;99.90
12015;DHT22;6066;48.138;16.402;2022-07-29T15:01:43;20.80;99.90
12015;DHT22;6066;48.138;16.402;2022-07-29T15:04:09;20.90;99.90
12015;DHT22;6066;48.138;16.402;2022-07-29T15:06:36;21.00;99.90
12015;DHT22;6066;48.138;16.402;2022-07-29T15:09:04;21.10;99.90
12015;DHT22;6066;48.138;16.402;2022-07-29T15:11:31;21.10;99.90
12015;DHT22;6066;48.138;16.402;2022-07-29T15:13:58;21.20;99.90
12015;DHT22;6066;48.138;16.402;2022-07-29T15:16:24;21.30;99.90
12015;DHT22;6066;48.138;16.402;2022-07-29T15:18:51;21.50;99.90
12015;DHT22;6066;48.138;16.402;2022-07-29T15:21:18;21.60;99.90
12015;DHT22;6066;48.138;16.402;2022-07-29T15:23:44;21.80;99.90
12015;DHT22;6066;48.138;16.402;2022-07-29T15:26:12;21.90;99.90
12015;DHT22;6066;48.138;16.402;2022-07-29T15:28:39;21.90;99.90
12015;DHT22;6066;48.138;16.402;2022-07-29T15:31:06;21.90;99.90
12015;DHT22;6066;48.138;16.402;2022-07-29T15:33:34;22.00;99.90
12015;DHT22;6066;48.138;16.402;2022-07-29T15:36:01;22.10;99.90
12015;DHT22;6066;48.138;16.402;2022-07-29T15:38:29;22.10;99.90
12015;DHT22;6066;48.138;16.402;2022-07-29T15:40:56;22.10;99.90
12015;DHT22;6066;48.138;16.402;2022-07-29T15:43:25;22.20;99.90
12015;DHT22;6066;48.138;16.402;2022-07-29T15:45:51;22.20;99.90
12015;DHT22;6066;48.138;16.402;2022-07-29T15:48:36;22.30;99.90
12015;DHT22;6066;48.138;16.402;2022-07-29T15:51:03;22.20;99.90